sensor_id;sensor_type;location;lat;lon;timestamp;pressure;altitude;pressure_sealevel;temperature;humidity
5380;BME280;2713;42.680;23.310;2023-04-04T00:01:24;93653.53;;;10.03;91.98
5380;BME280;2713;42.680;23.310;2023-04-04T00:03:51;93650.31;;;10.14;91.81
5380;BME280;2713;42.680;23.310;2023-04-04T00:06:18;93656.53;;;10.38;90.92
5380;BME280;2713;42.680;23.310;2023-04-04T00:08:45;93656.06;;;10.48;89.63
5380;BME280;2713;42.680;23.310;2023-04-04T00:11:13;93649.63;;;10.50;89.56
5380;BME280;2713;42.680;23.310;2023-04-04T00:13:40;93655.56;;;10.57;89.32
5380;BME280;2713;42.680;23.310;2023-04-04T00:16:07;93665.16;;;10.57;89.52
5380;BME280;2713;42.680;23.310;2023-04-04T00:18:34;93665.09;;;10.63;89.44
5380;BME280;2713;42.680;23.310;2023-04-04T00:21:01;93666.22;;;10.74;88.95
5380;BME280;2713;42.680;23.310;2023-04-04T00:23:28;93663.56;;;10.56;89.58
5380;BME280;2713;42.680;23.310;2023-04-04T00:25:55;93665.22;;;10.50;89.91
5380;BME280;2713;42.680;23.310;2023-04-04T00:28:23;93653.22;;;10.25;90.18
5380;BME280;2713;42.680;23.310;2023-04-04T00:30:49;93657.06;;;10.22;90.18
5380;BME280;2713;42.680;23.310;2023-04-04T00:33:16;93644.34;;;10.39;90.39
5380;BME280;2713;42.680;23.310;2023-04-04T00:35:43;93641.03;;;10.25;91.19
5380;BME280;2713;42.680;23.310;2023-04-04T00:38:10;93634.66;;;9.96;92.52
5380;BME280;2713;42.680;23.310;2023-04-04T00:40:40;93632.06;;;9.90;92.36
5380;BME280;2713;42.680;23.310;2023-04-04T00:43:07;93634.47;;;9.60;94.26
5380;BME280;2713;42.680;23.310;2023-04-04T00:45:36;93630.22;;;9.34;96.44
5380;BME280;2713;42.680;23.310;2023-04-04T00:48:03;93629.84;;;9.31;96.94
5380;BME280;2713;42.680;23.310;2023-04-04T00:50:30;93625.03;;;9.34;97.20
5380;BME280;2713;42.680;23.310;2023-04-04T00:52:59;93619.16;;;9.52;95.90
5380;BME280;2713;42.680;23.310;2023-04-04T00:55:26;93610.50;;;9.27;95.60
5380;BME280;2713;42.680;23.310;2023-04-04T00:57:53;93611.38;;;9.45;95.59
5380;BME280;2713;42.680;23.310;2023-04-04T01:00:20;93617.94;;;9.54;94.40
5380;BME280;2713;42.680;23.310;2023-04-04T01:02:49;93617.88;;;9.67;94.03
5380;BME280;2713;42.680;23.310;2023-04-04T01:05:16;93620.16;;;9.82;93.08
5380;BME280;2713;42.680;23.310;2023-04-04T01:07:43;93626.56;;;9.80;93.61
5380;BME280;2713;42.680;23.310;2023-04-04T01:10:10;93629.41;;;9.72;93.70
5380;BME280;2713;42.680;23.310;2023-04-04T01:12:38;93629.09;;;9.93;92.80
5380;BME280;2713;42.680;23.310;2023-04-04T01:15:06;93632.34;;;10.13;91.59
5380;BME280;2713;42.680;23.310;2023-04-04T01:17:33;93631.66;;;10.24;90.47
5380;BME280;2713;42.680;23.310;2023-04-04T01:20:05;93637.91;;;10.41;90.05
5380;BME280;2713;42.680;23.310;2023-04-04T01:22:44;93636.91;;;10.42;89.73
5380;BME280;2713;42.680;23.310;2023-04-04T01:25:13;93639.19;;;10.57;88.97
5380;BME280;2713;42.680;23.310;2023-04-04T01:27:45;93640.56;;;10.59;88.43
5380;BME280;2713;42.680;23.310;2023-04-04T01:30:15;93640.94;;;10.38;89.27
5380;BME280;2713;42.680;23.310;2023-04-04T01:32:44;93639.06;;;10.21;90.75
5380;BME280;2713;42.680;23.310;2023-04-04T01:35:20;93642.78;;;10.31;90.71
5380;BME280;2713;42.680;23.310;2023-04-04T01:37:59;93638.19;;;10.02;90.99
5380;BME280;2713;42.680;23.310;2023-04-04T01:40:31;93640.41;;;9.98;91.18
5380;BME280;2713;42.680;23.310;2023-04-04T01:43:02;93622.72;;;9.57;92.44
5380;BME280;2713;42.680;23.310;2023-04-04T01:45:30;93613.91;;;9.27;91.97
5380;BME280;2713;42.680;23.310;2023-04-04T01:48:00;93602.38;;;9.16;93.17
5380;BME280;2713;42.680;23.310;2023-04-04T01:50:28;93609.31;;;9.23;94.03
5380;BME280;2713;42.680;23.310;2023-04-04T01:52:54;93589.22;;;9.11;94.14
5380;BME280;2713;42.680;23.310;2023-04-04T01:55:21;93605.81;;;9.04;93.51
5380;BME280;2713;42.680;23.310;2023-04-04T01:57:48;93587.69;;;9.04;93.22
5380;BME280;2713;42.680;23.310;2023-04-04T02:00:17;93590.84;;;9.06;93.20
5380;BME280;2713;42.680;23.310;2023-04-04T02:02:44;93584.66;;;9.07;93.28
5380;BME280;2713;42.680;23.310;2023-04-04T02:05:11;93587.25;;;9.07;93.94
5380;BME280;2713;42.680;23.310;2023-04-04T02:07:38;93587.44;;;9.12;94.63
5380;BME280;2713;42.680;23.310;2023-04-04T02:10:14;93586.63;;;9.11;94.96
5380;BME280;2713;42.680;23.310;2023-04-04T02:12:41;93597.22;;;9.10;95.83
5380;BME280;2713;42.680;23.310;2023-04-04T02:15:09;93594.03;;;9.08;95.50
5380;BME280;2713;42.680;23.310;2023-04-04T02:17:37;93583.47;;;9.09;94.99
5380;BME280;2713;42.680;23.310;2023-04-04T02:20:06;93591.63;;;9.13;94.21
5380;BME280;2713;42.680;23.310;2023-04-04T02:22:33;93574.75;;;8.91;94.22
5380;BME280;2713;42.680;23.310;2023-04-04T02:24:59;93579.91;;;9.04;94.24
5380;BME280;2713;42.680;23.310;2023-04-04T02:27:27;93574.66;;;9.17;93.96
5380;BME280;2713;42.680;23.310;2023-04-04T02:29:54;93576.25;;;9.11;93.50
5380;BME280;2713;42.680;23.310;2023-04-04T02:32:21;93575.56;;;8.91;93.52
5380;BME280;2713;42.680;23.310;2023-04-04T02:34:50;93578.88;;;9.05;92.56
5380;BME280;2713;42.680;23.310;2023-04-04T02:37:18;93584.00;;;9.18;92.48
5380;BME280;2713;42.680;23.310;2023-04-04T02:39:47;93582.47;;;9.42;91.08
5380;BME280;2713;42.680;23.310;2023-04-04T02:42:15;93584.03;;;9.49;90.78
5380;BME280;2713;42.680;23.310;2023-04-04T02:44:42;93586.56;;;9.31;89.71
5380;BME280;2713;42.680;23.310;2023-04-04T02:47:12;93589.16;;;9.25;90.24
5380;BME280;2713;42.680;23.310;2023-04-04T02:49:39;93596.19;;;9.18;90.24
5380;BME280;2713;42.680;23.310;2023-04-04T02:52:07;93593.25;;;9.07;90.21
5380;BME280;2713;42.680;23.310;2023-04-04T02:54:38;93586.22;;;9.14;90.65
5380;BME280;2713;42.680;23.310;2023-04-04T02:57:08;93587.03;;;9.08;90.77
5380;BME280;2713;42.680;23.310;2023-04-04T02:59:35;93589.81;;;9.13;90.40
5380;BME280;2713;42.680;23.310;2023-04-04T03:02:02;93590.25;;;9.10;90.06
5380;BME280;2713;42.680;23.310;2023-04-04T03:04:29;93598.75;;;9.24;89.87
5380;BME280;2713;42.680;23.310;2023-04-04T03:06:56;93595.34;;;9.24;89.76
5380;BME280;2713;42.680;23.310;2023-04-04T03:09:25;93596.09;;;9.37;89.52
5380;BME280;2713;42.680;23.310;2023-04-04T03:11:52;93601.63;;;9.47;88.60
5380;BME280;2713;42.680;23.310;2023-04-04T03:14:19;93608.06;;;9.69;87.89
5380;BME280;2713;42.680;23.310;2023-04-04T03:16:46;93606.06;;;9.72;87.44
5380;BME280;2713;42.680;23.310;2023-04-04T03:19:13;93606.13;;;9.90;87.76
5380;BME280;2713;42.680;23.310;2023-04-04T03:21:40;93608.47;;;9.98;87.52
5380;BME280;2713;42.680;23.310;2023-04-04T03:24:07;93609.06;;;10.00;87.20
5380;BME280;2713;42.680;23.310;2023-04-04T03:26:35;93606.16;;;9.83;86.69
5380;BME280;2713;42.680;23.310;2023-04-04T03:29:03;93596.16;;;9.87;86.59
5380;BME280;2713;42.680;23.310;2023-04-04T03:31:31;93598.41;;;9.52;87.70
5380;BME280;2713;42.680;23.310;2023-04-04T03:33:58;93595.44;;;9.42;88.35
5380;BME280;2713;42.680;23.310;2023-04-04T03:36:26;93597.38;;;9.53;87.91
5380;BME280;2713;42.680;23.310;2023-04-04T03:38:53;93609.09;;;9.93;86.94
5380;BME280;2713;42.680;23.310;2023-04-04T03:41:20;93609.88;;;10.25;86.77
5380;BME280;2713;42.680;23.310;2023-04-04T03:43:49;93609.34;;;10.41;86.31
5380;BME280;2713;42.680;23.310;2023-04-04T03:46:16;93606.66;;;10.54;85.57
5380;BME280;2713;42.680;23.310;2023-04-04T03:48:44;93608.69;;;10.71;85.23
5380;BME280;2713;42.680;23.310;2023-04-04T03:51:11;93590.75;;;10.62;86.60
5380;BME280;2713;42.680;23.310;2023-04-04T03:53:38;93606.88;;;10.71;86.76
5380;BME280;2713;42.680;23.310;2023-04-04T03:56:05;93609.59;;;10.76;85.79
5380;BME280;2713;42.680;23.310;2023-04-04T03:58:34;93607.75;;;10.83;84.80
5380;BME280;2713;42.680;23.310;2023-04-04T04:01:02;93603.59;;;10.76;85.90
5380;BME280;2713;42.680;23.310;2023-04-04T04:03:30;93608.69;;;10.89;85.39
5380;BME280;2713;42.680;23.310;2023-04-04T04:05:57;93600.00;;;10.77;85.85
5380;BME280;2713;42.680;23.310;2023-04-04T04:08:25;93603.13;;;10.85;85.69
5380;BME280;2713;42.680;23.310;2023-04-04T04:10:52;93601.75;;;10.83;85.92
5380;BME280;2713;42.680;23.310;2023-04-04T04:13:19;93610.78;;;10.80;85.78
5380;BME280;2713;42.680;23.310;2023-04-04T04:15:46;93603.47;;;10.71;86.09
5380;BME280;2713;42.680;23.310;2023-04-04T04:18:20;93612.13;;;10.83;84.95
5380;BME280;2713;42.680;23.310;2023-04-04T04:20:48;93597.50;;;10.88;84.99
5380;BME280;2713;42.680;23.310;2023-04-04T04:23:15;93608.75;;;10.82;85.49
5380;BME280;2713;42.680;23.310;2023-04-04T04:25:42;93613.94;;;10.82;85.96
5380;BME280;2713;42.680;23.310;2023-04-04T04:28:16;93618.34;;;11.00;85.40
5380;BME280;2713;42.680;23.310;2023-04-04T04:30:42;93626.31;;;11.05;84.64
5380;BME280;2713;42.680;23.310;2023-04-04T04:33:11;93630.16;;;11.02;84.78
5380;BME280;2713;42.680;23.310;2023-04-04T04:35:50;93628.25;;;10.91;84.59
5380;BME280;2713;42.680;23.310;2023-04-04T04:38:19;93626.47;;;10.92;84.06
5380;BME280;2713;42.680;23.310;2023-04-04T04:40:46;93636.13;;;11.03;84.21
5380;BME280;2713;42.680;23.310;2023-04-04T04:43:23;93645.06;;;11.07;84.27
5380;BME280;2713;42.680;23.310;2023-04-04T04:45:50;93638.72;;;11.03;84.74
5380;BME280;2713;42.680;23.310;2023-04-04T04:48:17;93649.13;;;11.03;84.37
5380;BME280;2713;42.680;23.310;2023-04-04T04:50:49;93648.63;;;11.12;83.64
5380;BME280;2713;42.680;23.310;2023-04-04T04:53:27;93647.03;;;11.11;84.19
5380;BME280;2713;42.680;23.310;2023-04-04T04:55:54;93649.06;;;11.09;84.10
5380;BME280;2713;42.680;23.310;2023-04-04T04:58:21;93650.22;;;10.95;84.70
5380;BME280;2713;42.680;23.310;2023-04-04T05:00:54;93656.13;;;10.84;85.08
5380;BME280;2713;42.680;23.310;2023-04-04T05:03:22;93659.22;;;10.75;85.67
5380;BME280;2713;42.680;23.310;2023-04-04T05:05:50;93666.00;;;10.94;85.68
5380;BME280;2713;42.680;23.310;2023-04-04T05:08:17;93669.53;;;10.99;85.92
5380;BME280;2713;42.680;23.310;2023-04-04T05:10:55;93663.19;;;11.13;84.85
5380;BME280;2713;42.680;23.310;2023-04-04T05:13:26;93663.56;;;11.17;84.49
5380;BME280;2713;42.680;23.310;2023-04-04T05:15:53;93669.50;;;11.06;84.35
5380;BME280;2713;42.680;23.310;2023-04-04T05:18:20;93676.41;;;10.94;84.79
5380;BME280;2713;42.680;23.310;2023-04-04T05:20:51;93671.47;;;10.86;85.44
5380;BME280;2713;42.680;23.310;2023-04-04T05:23:18;93676.72;;;11.04;85.07
5380;BME280;2713;42.680;23.310;2023-04-04T05:25:47;93680.41;;;11.14;84.44
5380;BME280;2713;42.680;23.310;2023-04-04T05:28:16;93678.53;;;11.22;84.22
5380;BME280;2713;42.680;23.310;2023-04-04T05:30:43;93683.47;;;11.30;83.61
5380;BME280;2713;42.680;23.310;2023-04-04T05:33:23;93685.81;;;11.49;82.15
5380;BME280;2713;42.680;23.310;2023-04-04T05:36:14;93682.34;;;11.55;81.70
5380;BME280;2713;42.680;23.310;2023-04-04T05:38:47;93687.47;;;11.62;81.76
5380;BME280;2713;42.680;23.310;2023-04-04T05:41:17;93686.97;;;11.53;82.86
5380;BME280;2713;42.680;23.310;2023-04-04T05:43:47;93690.22;;;11.49;83.49
5380;BME280;2713;42.680;23.310;2023-04-04T05:46:17;93686.78;;;11.37;83.56
5380;BME280;2713;42.680;23.310;2023-04-04T05:48:48;93689.16;;;11.38;82.78
5380;BME280;2713;42.680;23.310;2023-04-04T05:51:16;93692.72;;;11.44;82.77
5380;BME280;2713;42.680;23.310;2023-04-04T05:53:57;93690.38;;;11.36;83.75
5380;BME280;2713;42.680;23.310;2023-04-04T05:56:28;93697.44;;;11.10;86.10
5380;BME280;2713;42.680;23.310;2023-04-04T05:58:59;93695.81;;;11.16;85.58
5380;BME280;2713;42.680;23.310;2023-04-04T06:01:28;93696.03;;;11.33;85.56
5380;BME280;2713;42.680;23.310;2023-04-04T06:03:58;93695.72;;;11.59;83.59
5380;BME280;2713;42.680;23.310;2023-04-04T06:06:26;93697.44;;;11.65;82.97
5380;BME280;2713;42.680;23.310;2023-04-04T06:08:53;93696.22;;;11.49;83.22
5380;BME280;2713;42.680;23.310;2023-04-04T06:11:20;93697.75;;;11.02;86.12
5380;BME280;2713;42.680;23.310;2023-04-04T06:13:48;93702.56;;;11.17;85.75
5380;BME280;2713;42.680;23.310;2023-04-04T06:16:18;93707.16;;;11.40;84.93
5380;BME280;2713;42.680;23.310;2023-04-04T06:18:46;93716.25;;;11.49;84.13
5380;BME280;2713;42.680;23.310;2023-04-04T06:21:13;93709.81;;;11.51;83.92
5380;BME280;2713;42.680;23.310;2023-04-04T06:23:40;93707.84;;;11.65;83.79
5380;BME280;2713;42.680;23.310;2023-04-04T06:26:07;93704.34;;;11.78;83.25
5380;BME280;2713;42.680;23.310;2023-04-04T06:28:35;93707.50;;;11.80;83.11
5380;BME280;2713;42.680;23.310;2023-04-04T06:31:04;93716.41;;;11.72;84.62
5380;BME280;2713;42.680;23.310;2023-04-04T06:33:34;93722.66;;;11.64;84.26
5380;BME280;2713;42.680;23.310;2023-04-04T06:36:01;93738.84;;;11.30;80.63
5380;BME280;2713;42.680;23.310;2023-04-04T06:38:28;93743.63;;;10.65;80.19
5380;BME280;2713;42.680;23.310;2023-04-04T06:40:58;93760.25;;;10.64;80.46
5380;BME280;2713;42.680;23.310;2023-04-04T06:43:25;93759.69;;;10.25;79.19
5380;BME280;2713;42.680;23.310;2023-04-04T06:45:53;93776.34;;;10.04;78.62
5380;BME280;2713;42.680;23.310;2023-04-04T06:48:20;93773.19;;;10.02;78.37
5380;BME280;2713;42.680;23.310;2023-04-04T06:50:48;93791.22;;;9.84;76.46
5380;BME280;2713;42.680;23.310;2023-04-04T06:53:16;93793.50;;;9.60;76.54
5380;BME280;2713;42.680;23.310;2023-04-04T06:55:43;93791.16;;;9.39;77.32
5380;BME280;2713;42.680;23.310;2023-04-04T06:58:10;93794.78;;;9.12;75.27
5380;BME280;2713;42.680;23.310;2023-04-04T07:00:38;93806.34;;;8.70;76.37
5380;BME280;2713;42.680;23.310;2023-04-04T07:03:04;93815.88;;;8.43;75.77
5380;BME280;2713;42.680;23.310;2023-04-04T07:05:31;93819.59;;;8.21;76.82
5380;BME280;2713;42.680;23.310;2023-04-04T07:07:59;93838.84;;;8.05;75.48
5380;BME280;2713;42.680;23.310;2023-04-04T07:10:26;93843.91;;;7.73;77.99
5380;BME280;2713;42.680;23.310;2023-04-04T07:12:53;93852.34;;;7.94;76.83
5380;BME280;2713;42.680;23.310;2023-04-04T07:15:20;93855.41;;;8.11;76.90
5380;BME280;2713;42.680;23.310;2023-04-04T07:17:47;93868.34;;;8.11;77.12
5380;BME280;2713;42.680;23.310;2023-04-04T07:20:14;93868.06;;;8.40;75.71
5380;BME280;2713;42.680;23.310;2023-04-04T07:22:41;93881.00;;;8.40;75.26
5380;BME280;2713;42.680;23.310;2023-04-04T07:25:10;93878.66;;;7.98;76.34
5380;BME280;2713;42.680;23.310;2023-04-04T07:27:37;93887.84;;;8.07;75.66
5380;BME280;2713;42.680;23.310;2023-04-04T07:30:06;93890.50;;;7.86;75.86
5380;BME280;2713;42.680;23.310;2023-04-04T07:32:33;93902.00;;;7.77;75.10
5380;BME280;2713;42.680;23.310;2023-04-04T07:35:00;93904.69;;;7.96;76.01
5380;BME280;2713;42.680;23.310;2023-04-04T07:37:27;93910.06;;;7.95;75.53
5380;BME280;2713;42.680;23.310;2023-04-04T07:39:53;93917.16;;;7.80;75.29
5380;BME280;2713;42.680;23.310;2023-04-04T07:42:22;93914.09;;;8.04;75.22
5380;BME280;2713;42.680;23.310;2023-04-04T07:44:49;93918.41;;;7.90;74.62
5380;BME280;2713;42.680;23.310;2023-04-04T07:47:17;93926.44;;;7.74;74.63
5380;BME280;2713;42.680;23.310;2023-04-04T07:49:45;93921.69;;;7.78;76.26
5380;BME280;2713;42.680;23.310;2023-04-04T07:52:14;93928.22;;;7.67;76.13
5380;BME280;2713;42.680;23.310;2023-04-04T07:54:41;93927.13;;;7.83;74.43
5380;BME280;2713;42.680;23.310;2023-04-04T07:57:09;93921.56;;;7.86;74.80
5380;BME280;2713;42.680;23.310;2023-04-04T07:59:37;93935.00;;;7.75;74.16
5380;BME280;2713;42.680;23.310;2023-04-04T08:02:04;93932.97;;;7.63;75.47
5380;BME280;2713;42.680;23.310;2023-04-04T08:04:30;93941.53;;;7.71;74.77
5380;BME280;2713;42.680;23.310;2023-04-04T08:06:57;93955.22;;;7.64;74.42
5380;BME280;2713;42.680;23.310;2023-04-04T08:09:24;93948.38;;;7.78;74.87
5380;BME280;2713;42.680;23.310;2023-04-04T08:11:55;93960.53;;;7.84;73.65
5380;BME280;2713;42.680;23.310;2023-04-04T08:14:22;93957.97;;;7.56;72.24
5380;BME280;2713;42.680;23.310;2023-04-04T08:16:50;93962.91;;;7.30;71.95
5380;BME280;2713;42.680;23.310;2023-04-04T08:19:17;93971.91;;;7.13;72.13
5380;BME280;2713;42.680;23.310;2023-04-04T08:21:44;93971.66;;;6.87;72.86
5380;BME280;2713;42.680;23.310;2023-04-04T08:24:11;93976.16;;;6.99;74.64
5380;BME280;2713;42.680;23.310;2023-04-04T08:26:38;93973.16;;;7.17;73.70
5380;BME280;2713;42.680;23.310;2023-04-04T08:29:05;93977.44;;;7.10;73.04
5380;BME280;2713;42.680;23.310;2023-04-04T08:31:32;93978.25;;;7.10;73.92
5380;BME280;2713;42.680;23.310;2023-04-04T08:34:00;93998.81;;;7.19;74.46
5380;BME280;2713;42.680;23.310;2023-04-04T08:36:27;93973.78;;;6.98;73.12
5380;BME280;2713;42.680;23.310;2023-04-04T08:38:55;93991.53;;;6.86;73.05
5380;BME280;2713;42.680;23.310;2023-04-04T08:41:21;93992.63;;;6.77;73.48
5380;BME280;2713;42.680;23.310;2023-04-04T08:43:52;93993.63;;;6.61;72.24
5380;BME280;2713;42.680;23.310;2023-04-04T08:46:21;93996.28;;;6.68;72.90
5380;BME280;2713;42.680;23.310;2023-04-04T08:48:49;93994.03;;;6.80;72.82
5380;BME280;2713;42.680;23.310;2023-04-04T08:51:19;94007.91;;;6.93;72.79
5380;BME280;2713;42.680;23.310;2023-04-04T08:53:46;94008.94;;;6.78;71.25
5380;BME280;2713;42.680;23.310;2023-04-04T08:56:12;94010.00;;;6.69;72.24
5380;BME280;2713;42.680;23.310;2023-04-04T08:58:39;94003.81;;;6.48;73.30
5380;BME280;2713;42.680;23.310;2023-04-04T09:01:06;94013.59;;;6.68;72.61
5380;BME280;2713;42.680;23.310;2023-04-04T09:03:34;94013.91;;;6.64;73.69
5380;BME280;2713;42.680;23.310;2023-04-04T09:06:03;94017.44;;;6.57;72.68
5380;BME280;2713;42.680;23.310;2023-04-04T09:08:31;94016.72;;;6.48;74.00
5380;BME280;2713;42.680;23.310;2023-04-04T09:11:01;94018.91;;;6.66;72.08
5380;BME280;2713;42.680;23.310;2023-04-04T09:13:28;94025.53;;;6.54;74.46
5380;BME280;2713;42.680;23.310;2023-04-04T09:15:56;94020.69;;;6.66;73.65
5380;BME280;2713;42.680;23.310;2023-04-04T09:18:24;94030.66;;;6.69;74.14
5380;BME280;2713;42.680;23.310;2023-04-04T09:20:51;94022.81;;;6.77;74.65
5380;BME280;2713;42.680;23.310;2023-04-04T09:23:18;94025.13;;;6.72;74.16
5380;BME280;2713;42.680;23.310;2023-04-04T09:25:47;94033.66;;;6.87;72.97
5380;BME280;2713;42.680;23.310;2023-04-04T09:28:15;94032.56;;;6.96;71.70
5380;BME280;2713;42.680;23.310;2023-04-04T09:30:42;94037.84;;;6.88;71.78
5380;BME280;2713;42.680;23.310;2023-04-04T09:33:12;94037.28;;;6.56;70.91
5380;BME280;2713;42.680;23.310;2023-04-04T09:35:43;94044.56;;;6.68;70.38
5380;BME280;2713;42.680;23.310;2023-04-04T09:38:10;94045.53;;;6.67;72.23
5380;BME280;2713;42.680;23.310;2023-04-04T09:40:40;94034.75;;;6.78;71.03
5380;BME280;2713;42.680;23.310;2023-04-04T09:43:08;94048.84;;;6.60;71.85
5380;BME280;2713;42.680;23.310;2023-04-04T09:45:38;94047.59;;;6.56;71.52
5380;BME280;2713;42.680;23.310;2023-04-04T09:48:06;94050.06;;;6.64;71.33
5380;BME280;2713;42.680;23.310;2023-04-04T09:50:35;94050.91;;;6.36;71.63
5380;BME280;2713;42.680;23.310;2023-04-04T09:53:03;94038.88;;;6.28;71.98
5380;BME280;2713;42.680;23.310;2023-04-04T09:55:31;94027.84;;;6.34;71.85
5380;BME280;2713;42.680;23.310;2023-04-04T09:57:58;94028.47;;;6.22;70.90
5380;BME280;2713;42.680;23.310;2023-04-04T10:00:28;94039.16;;;6.19;73.04
5380;BME280;2713;42.680;23.310;2023-04-04T10:03:01;94052.19;;;6.61;71.95
5380;BME280;2713;42.680;23.310;2023-04-04T10:05:28;94048.63;;;6.77;70.06
5380;BME280;2713;42.680;23.310;2023-04-04T10:07:56;94027.47;;;6.67;69.51
5380;BME280;2713;42.680;23.310;2023-04-04T10:10:23;94045.38;;;6.53;70.44
5380;BME280;2713;42.680;23.310;2023-04-04T10:12:51;94059.63;;;6.64;70.70
5380;BME280;2713;42.680;23.310;2023-04-04T10:15:21;94054.84;;;6.82;69.08
5380;BME280;2713;42.680;23.310;2023-04-04T10:17:52;94068.41;;;6.84;67.15
5380;BME280;2713;42.680;23.310;2023-04-04T10:20:20;94039.91;;;6.78;67.97
5380;BME280;2713;42.680;23.310;2023-04-04T10:22:48;94074.69;;;7.32;66.87
5380;BME280;2713;42.680;23.310;2023-04-04T10:25:16;94073.06;;;7.10;68.60
5380;BME280;2713;42.680;23.310;2023-04-04T10:27:43;94068.41;;;7.05;67.99
5380;BME280;2713;42.680;23.310;2023-04-04T10:30:11;94080.72;;;7.03;68.15
5380;BME280;2713;42.680;23.310;2023-04-04T10:32:44;94074.56;;;6.69;68.39
5380;BME280;2713;42.680;23.310;2023-04-04T10:35:20;94065.84;;;6.70;67.87
5380;BME280;2713;42.680;23.310;2023-04-04T10:37:53;94093.19;;;6.49;69.09
5380;BME280;2713;42.680;23.310;2023-04-04T10:40:25;94075.63;;;6.45;69.48
5380;BME280;2713;42.680;23.310;2023-04-04T10:42:54;94093.63;;;6.68;69.00
5380;BME280;2713;42.680;23.310;2023-04-04T10:45:22;94070.03;;;6.71;68.48
5380;BME280;2713;42.680;23.310;2023-04-04T10:47:50;94099.78;;;7.02;68.10
5380;BME280;2713;42.680;23.310;2023-04-04T10:50:19;94077.72;;;6.85;68.44
5380;BME280;2713;42.680;23.310;2023-04-04T10:52:46;94105.09;;;6.80;69.19
5380;BME280;2713;42.680;23.310;2023-04-04T10:55:14;94103.63;;;7.06;67.88
5380;BME280;2713;42.680;23.310;2023-04-04T10:57:44;94105.59;;;6.90;68.55
5380;BME280;2713;42.680;23.310;2023-04-04T11:00:13;94113.56;;;6.88;69.27
5380;BME280;2713;42.680;23.310;2023-04-04T11:02:51;94101.09;;;6.62;69.24
5380;BME280;2713;42.680;23.310;2023-04-04T11:05:23;94111.94;;;6.58;69.94
5380;BME280;2713;42.680;23.310;2023-04-04T11:07:57;94112.56;;;6.75;68.76
5380;BME280;2713;42.680;23.310;2023-04-04T11:10:26;94108.59;;;6.57;68.89
5380;BME280;2713;42.680;23.310;2023-04-04T11:12:55;94119.06;;;6.56;69.66
5380;BME280;2713;42.680;23.310;2023-04-04T11:15:24;94118.28;;;6.55;69.10
5380;BME280;2713;42.680;23.310;2023-04-04T11:17:56;94117.63;;;6.68;69.96
5380;BME280;2713;42.680;23.310;2023-04-04T11:20:28;94126.19;;;6.69;70.14
5380;BME280;2713;42.680;23.310;2023-04-04T11:23:01;94121.91;;;6.61;70.65
5380;BME280;2713;42.680;23.310;2023-04-04T11:25:48;94124.75;;;6.51;70.89
5380;BME280;2713;42.680;23.310;2023-04-04T11:28:24;94118.63;;;6.52;71.15
5380;BME280;2713;42.680;23.310;2023-04-04T11:31:22;94126.28;;;6.46;71.52
5380;BME280;2713;42.680;23.310;2023-04-04T11:33:53;94142.19;;;6.35;71.79
5380;BME280;2713;42.680;23.310;2023-04-04T11:36:47;94127.88;;;6.32;72.25
5380;BME280;2713;42.680;23.310;2023-04-04T11:39:20;94136.09;;;6.50;71.52
5380;BME280;2713;42.680;23.310;2023-04-04T11:41:51;94136.53;;;6.39;71.65
5380;BME280;2713;42.680;23.310;2023-04-04T11:44:19;94138.50;;;6.67;71.56
5380;BME280;2713;42.680;23.310;2023-04-04T11:46:46;94134.66;;;6.62;71.35
5380;BME280;2713;42.680;23.310;2023-04-04T11:49:14;94145.78;;;6.63;70.67
5380;BME280;2713;42.680;23.310;2023-04-04T11:51:42;94135.63;;;6.61;71.12
5380;BME280;2713;42.680;23.310;2023-04-04T11:54:12;94137.94;;;6.42;71.55
5380;BME280;2713;42.680;23.310;2023-04-04T11:56:41;94136.69;;;6.52;72.49
5380;BME280;2713;42.680;23.310;2023-04-04T11:59:09;94139.28;;;6.67;72.59
5380;BME280;2713;42.680;23.310;2023-04-04T12:01:37;94129.81;;;6.89;70.93
5380;BME280;2713;42.680;23.310;2023-04-04T12:04:04;94140.53;;;6.86;70.27
5380;BME280;2713;42.680;23.310;2023-04-04T12:06:31;94135.81;;;6.89;70.02
5380;BME280;2713;42.680;23.310;2023-04-04T12:09:02;94138.50;;;6.81;69.23
5380;BME280;2713;42.680;23.310;2023-04-04T12:11:30;94145.69;;;6.86;69.92
5380;BME280;2713;42.680;23.310;2023-04-04T12:13:59;94151.31;;;6.60;70.72
5380;BME280;2713;42.680;23.310;2023-04-04T12:16:26;94149.59;;;6.82;70.64
5380;BME280;2713;42.680;23.310;2023-04-04T12:18:55;94142.75;;;6.89;70.31
5380;BME280;2713;42.680;23.310;2023-04-04T12:21:22;94142.03;;;6.66;70.19
5380;BME280;2713;42.680;23.310;2023-04-04T12:23:50;94144.78;;;6.35;71.82
5380;BME280;2713;42.680;23.310;2023-04-04T12:26:18;94144.31;;;6.31;71.39
5380;BME280;2713;42.680;23.310;2023-04-04T12:28:45;94147.31;;;6.20;71.76
5380;BME280;2713;42.680;23.310;2023-04-04T12:31:14;94153.38;;;6.27;71.95
5380;BME280;2713;42.680;23.310;2023-04-04T12:33:41;94161.03;;;6.21;72.62
5380;BME280;2713;42.680;23.310;2023-04-04T12:36:10;94151.91;;;5.95;71.51
5380;BME280;2713;42.680;23.310;2023-04-04T12:38:54;94152.94;;;5.86;72.20
5380;BME280;2713;42.680;23.310;2023-04-04T12:41:23;94163.19;;;5.94;73.62
5380;BME280;2713;42.680;23.310;2023-04-04T12:43:51;94153.69;;;5.95;73.31
5380;BME280;2713;42.680;23.310;2023-04-04T12:46:24;94157.28;;;5.86;72.07
5380;BME280;2713;42.680;23.310;2023-04-04T12:48:52;94158.56;;;5.59;72.49
5380;BME280;2713;42.680;23.310;2023-04-04T12:51:19;94162.13;;;5.81;72.66
5380;BME280;2713;42.680;23.310;2023-04-04T12:53:50;94161.78;;;5.84;72.87
5380;BME280;2713;42.680;23.310;2023-04-04T12:56:18;94171.94;;;5.85;72.01
5380;BME280;2713;42.680;23.310;2023-04-04T12:58:50;94174.88;;;6.05;71.32
5380;BME280;2713;42.680;23.310;2023-04-04T13:01:17;94173.31;;;5.96;71.00
5380;BME280;2713;42.680;23.310;2023-04-04T13:03:46;94179.03;;;5.83;72.23
5380;BME280;2713;42.680;23.310;2023-04-04T13:06:15;94182.16;;;5.79;71.06
5380;BME280;2713;42.680;23.310;2023-04-04T13:08:49;94177.06;;;5.93;71.97
5380;BME280;2713;42.680;23.310;2023-04-04T13:11:16;94189.22;;;5.77;70.66
5380;BME280;2713;42.680;23.310;2023-04-04T13:13:44;94189.13;;;5.70;71.66
5380;BME280;2713;42.680;23.310;2023-04-04T13:16:13;94194.59;;;5.44;72.20
5380;BME280;2713;42.680;23.310;2023-04-04T13:18:54;94198.81;;;5.37;73.54
5380;BME280;2713;42.680;23.310;2023-04-04T13:21:21;94197.91;;;5.22;73.29
5380;BME280;2713;42.680;23.310;2023-04-04T13:23:48;94193.25;;;5.18;74.64
5380;BME280;2713;42.680;23.310;2023-04-04T13:26:15;94198.41;;;5.18;75.52